Time;durP1;ratioP1;P1;durP2;ratioP2;P2;SDS_P1;SDS_P2;PMS_P1;PMS_P2;Temp;Humidity;BMP_temperature;BMP_pressure;BME280_temperature;BME280_humidity;BME280_pressure;Samples;Min_cycle;Max_cycle;Signal;HPM_P1;HPM_P2
2023/03/15 00:01:45;;;;;;;7.65;2.05;;;;;;;;;;5048599;28;20049;-55
2023/03/15 00:04:13;;;;;;;13.98;2.15;;;;;;;;;;5042420;28;20057;-56
2023/03/15 00:06:47;;;;;;;19.67;2.30;;;;;;;;;;5042341;28;20421;-51
2023/03/15 00:09:14;;;;;;;9.15;1.73;;;;;;;;;;5048775;28;20102;-52
2023/03/15 00:11:48;;;;;;;6.35;1.67;;;;;;;;;;5046425;28;21554;-52
2023/03/15 00:14:15;;;;;;;;;;;;;;;;;;5046770;28;20072;-59
2023/03/15 00:16:42;;;;;;;15.00;2.28;;;;;;;;;;5045588;28;19929;-59
2023/03/15 00:19:23;;;;;;;13.18;2.80;;;;;;;;;;5060419;28;20063;-60
2023/03/15 00:21:50;;;;;;;17.90;2.60;;;;;;;;;;5063031;28;20048;-60
2023/03/15 00:24:24;;;;;;;17.38;2.40;;;;;;;;;;5060378;28;20514;-52
2023/03/15 00:26:52;;;;;;;9.82;2.25;;;;;;;;;;5057999;28;20134;-55
2023/03/15 00:29:19;;;;;;;17.42;2.20;;;;;;;;;;5061897;28;20044;-49
2023/03/15 00:31:53;;;;;;;7.68;1.92;;;;;;;;;;5058524;28;20067;-51
2023/03/15 00:34:24;;;;;;;11.93;2.10;;;;;;;;;;5058426;28;20071;-52
2023/03/15 00:36:58;;;;;;;8.37;2.13;;;;;;;;;;5057669;28;20065;-54
2023/03/15 00:39:25;;;;;;;14.10;2.22;;;;;;;;;;5061535;28;20294;-53
2023/03/15 00:41:55;;;;;;;11.57;2.20;;;;;;;;;;5061714;28;20052;-58
2023/03/15 00:44:29;;;;;;;35.83;2.97;;;;;;;;;;5062173;28;20055;-59
2023/03/15 00:46:57;;;;;;;10.70;1.77;;;;;;;;;;5059375;28;20053;-57
2023/03/15 00:49:32;;;;;;;12.65;2.10;;;;;;;;;;5059723;28;20416;-60
2023/03/15 00:51:59;;;;;;;11.40;3.15;;;;;;;;;;5059685;28;20065;-51
2023/03/15 00:54:26;;;;;;;5.50;1.85;;;;;;;;;;5060805;28;20086;-50
2023/03/15 00:57:00;;;;;;;8.05;2.13;;;;;;;;;;5058343;28;20052;-50
2023/03/15 00:59:28;;;;;;;10.65;2.55;;;;;;;;;;5055923;28;20051;-51
2023/03/15 01:02:02;;;;;;;15.70;2.80;;;;;;;;;;5061263;28;20052;-50
2023/03/15 01:04:30;;;;;;;13.13;2.25;;;;;;;;;;5058327;28;20056;-53
2023/03/15 01:06:57;;;;;;;;;;;;;;;;;;5060314;28;20138;-51
2023/03/15 01:09:31;;;;;;;13.73;2.28;;;;;;;;;;5060815;28;19920;-62
2023/03/15 01:11:58;;;;;;;14.73;2.85;;;;;;;;;;5059783;28;20080;-62
2023/03/15 01:14:34;;;;;;;9.25;1.90;;;;;;;;;;5061324;28;20060;-63
2023/03/15 01:17:07;;;;;;;16.98;2.25;;;;;;;;;;5059984;28;20411;-62
2023/03/15 01:19:50;;;;;;;15.65;2.65;;;;;;;;;;5057198;28;20139;-47
2023/03/15 01:22:17;;;;;;;15.93;2.38;;;;;;;;;;5059683;28;20132;-62
2023/03/15 01:24:52;;;;;;;19.85;2.35;;;;;;;;;;5059448;28;20058;-50
2023/03/15 01:27:19;;;;;;;12.95;2.00;;;;;;;;;;5059765;28;20054;-50
2023/03/15 01:29:46;;;;;;;11.45;2.55;;;;;;;;;;5060736;28;20512;-51
2023/03/15 01:32:20;;;;;;;10.88;2.30;;;;;;;;;;5062837;28;20061;-53
2023/03/15 01:34:47;;;;;;;7.55;1.80;;;;;;;;;;5061311;28;20113;-56
2023/03/15 01:37:14;;;;;;;16.45;2.67;;;;;;;;;;5058981;28;20175;-51
2023/03/15 01:39:48;;;;;;;12.05;2.38;;;;;;;;;;5062214;28;20055;-53
2023/03/15 01:42:15;;;;;;;15.60;2.25;;;;;;;;;;5060579;28;20048;-55
2023/03/15 01:44:56;;;;;;;15.52;2.15;;;;;;;;;;5061490;28;20049;-56
2023/03/15 01:47:31;;;;;;;20.35;2.30;;;;;;;;;;5059993;28;20053;-56
2023/03/15 01:50:07;;;;;;;14.05;2.40;;;;;;;;;;5058755;28;20168;-53
2023/03/15 01:52:36;;;;;;;12.90;2.35;;;;;;;;;;5058160;28;20064;-55
2023/03/15 01:55:14;;;;;;;14.05;3.25;;;;;;;;;;5059915;28;20075;-48
2023/03/15 01:57:45;;;;;;;13.32;2.17;;;;;;;;;;5059021;28;20397;-48
2023/03/15 02:00:20;;;;;;;9.23;1.67;;;;;;;;;;5061201;28;20102;-49
2023/03/15 02:02:50;;;;;;;16.38;2.47;;;;;;;;;;5057831;28;20167;-52
2023/03/15 02:05:20;;;;;;;14.63;2.35;;;;;;;;;;5060920;28;20467;-55
2023/03/15 02:07:54;;;;;;;8.35;1.90;;;;;;;;;;5060864;28;20123;-56
2023/03/15 02:10:26;;;;;;;12.52;2.72;;;;;;;;;;5058274;28;20512;-49
2023/03/15 02:13:00;;;;;;;17.02;2.72;;;;;;;;;;5062099;28;20055;-55
2023/03/15 02:15:34;;;;;;;11.77;2.38;;;;;;;;;;5066560;28;20467;-53
2023/03/15 02:18:07;;;;;;;;;;;;;;;;;;5063146;28;20499;-51
2023/03/15 02:20:51;;;;;;;16.05;2.78;;;;;;;;;;5060388;28;20059;-51
2023/03/15 02:23:19;;;;;;;11.48;2.10;;;;;;;;;;5065822;28;20050;-53
2023/03/15 02:26:11;;;;;;;7.20;1.85;;;;;;;;;;5060472;28;20456;-55
2023/03/15 02:28:38;;;;;;;14.98;2.20;;;;;;;;;;5063288;28;20560;-56
2023/03/15 02:31:13;;;;;;;17.33;2.63;;;;;;;;;;5064897;28;20523;-57
2023/03/15 02:33:44;;;;;;;15.55;2.65;;;;;;;;;;5063184;28;20139;-53
2023/03/15 02:36:15;;;;;;;13.27;2.03;;;;;;;;;;5061805;28;20056;-54
2023/03/15 02:38:49;;;;;;;20.37;2.40;;;;;;;;;;5062371;28;20063;-55
2023/03/15 02:41:18;;;;;;;22.95;2.78;;;;;;;;;;5065160;28;20135;-51
2023/03/15 02:43:47;;;;;;;19.08;2.55;;;;;;;;;;5060523;28;20569;-50
2023/03/15 02:46:21;;;;;;;5.35;1.88;;;;;;;;;;5063422;28;20059;-62
2023/03/15 02:48:50;;;;;;;14.95;2.55;;;;;;;;;;5063702;28;20055;-51
2023/03/15 02:51:24;;;;;;;11.07;2.50;;;;;;;;;;5062323;28;20040;-53
2023/03/15 02:53:51;;;;;;;11.93;1.85;;;;;;;;;;5061090;28;20144;-49
2023/03/15 02:56:18;;;;;;;4.75;1.92;;;;;;;;;;5063301;28;20127;-50
2023/03/15 02:58:53;;;;;;;7.68;2.05;;;;;;;;;;5064143;28;20052;-49
2023/03/15 03:01:20;;;;;;;15.65;2.63;;;;;;;;;;5060849;28;20049;-50
2023/03/15 03:03:54;;;;;;;10.63;2.05;;;;;;;;;;5060995;28;20056;-45
2023/03/15 03:06:21;;;;;;;17.92;2.65;;;;;;;;;;5061201;28;20052;-49
2023/03/15 03:08:48;;;;;;;;;;;;;;;;;;5049156;28;20048;-46
2023/03/15 03:11:23;;;;;;;9.93;2.00;;;;;;;;;;5062719;28;20445;-46
2023/03/15 03:13:50;;;;;;;9.98;1.73;;;;;;;;;;5062853;28;20058;-61
2023/03/15 03:16:24;;;;;;;9.25;2.08;;;;;;;;;;5064433;28;20699;-62
2023/03/15 03:18:57;;;;;;;9.13;1.98;;;;;;;;;;5049611;28;20102;-62
2023/03/15 03:21:32;;;;;;;10.13;3.00;;;;;;;;;;5043365;28;20052;-62
2023/03/15 03:23:59;;;;;;;10.13;1.80;;;;;;;;;;5049121;28;20060;-61
2023/03/15 03:26:26;;;;;;;12.10;2.03;;;;;;;;;;5044921;28;20057;-62
2023/03/15 03:29:01;;;;;;;10.30;2.30;;;;;;;;;;5048373;28;20063;-62
2023/03/15 03:31:28;;;;;;;8.57;1.73;;;;;;;;;;5046163;28;20844;-60
2023/03/15 03:34:02;;;;;;;10.70;1.92;;;;;;;;;;5048308;28;20081;-60
2023/03/15 03:36:29;;;;;;;11.80;2.53;;;;;;;;;;5048129;28;20397;-59
2023/03/15 03:38:56;;;;;;;11.05;2.33;;;;;;;;;;5046996;28;20151;-60
2023/03/15 03:41:30;;;;;;;9.68;2.22;;;;;;;;;;5047518;28;20055;-53
2023/03/15 03:43:57;;;;;;;9.55;2.22;;;;;;;;;;5045620;28;20385;-49
2023/03/15 03:46:31;;;;;;;10.18;2.13;;;;;;;;;;5043766;28;20084;-47
2023/03/15 03:48:58;;;;;;;6.40;1.45;;;;;;;;;;5047998;28;20059;-46
2023/03/15 03:51:25;;;;;;;7.70;1.60;;;;;;;;;;5047041;28;20057;-51
2023/03/15 03:53:58;;;;;;;13.00;2.25;;;;;;;;;;5047395;28;20053;-50
2023/03/15 03:56:26;;;;;;;6.93;1.90;;;;;;;;;;5047374;28;20076;-49
2023/03/15 03:59:00;;;;;;;7.88;2.08;;;;;;;;;;5046806;28;20466;-46
2023/03/15 04:01:27;;;;;;;;;;;;;;;;;;5043862;28;20108;-60
2023/03/15 04:03:54;;;;;;;11.30;2.05;;;;;;;;;;5049327;28;19929;-59
2023/03/15 04:06:27;;;;;;;13.02;2.40;;;;;;;;;;5043658;28;20049;-59
2023/03/15 04:08:55;;;;;;;8.88;2.13;;;;;;;;;;5046929;28;20057;-60
2023/03/15 04:11:28;;;;;;;9.27;1.83;;;;;;;;;;5041892;28;20057;-54
2023/03/15 04:13:56;;;;;;;10.02;1.85;;;;;;;;;;5044068;28;20059;-50
2023/03/15 04:16:23;;;;;;;9.65;1.77;;;;;;;;;;5048412;28;20048;-55
2023/03/15 04:19:03;;;;;;;6.47;1.67;;;;;;;;;;5060749;28;20466;-52
2023/03/15 04:21:31;;;;;;;7.15;1.83;;;;;;;;;;5059322;28;20499;-53
2023/03/15 04:24:06;;;;;;;4.68;1.77;;;;;;;;;;5060768;28;20053;-57
2023/03/15 04:26:33;;;;;;;7.40;1.80;;;;;;;;;;5061572;28;20056;-50
2023/03/15 04:29:00;;;;;;;9.15;2.05;;;;;;;;;;5041652;28;20462;-54
2023/03/15 04:31:36;;;;;;;9.80;1.80;;;;;;;;;;5060822;28;20507;-53
2023/03/15 04:34:04;;;;;;;6.53;1.63;;;;;;;;;;5062018;28;20523;-51
2023/03/15 04:36:38;;;;;;;8.25;1.88;;;;;;;;;;5060097;28;20064;-58
2023/03/15 04:39:06;;;;;;;9.77;2.22;;;;;;;;;;5060476;28;20045;-52
2023/03/15 04:41:33;;;;;;;9.70;1.85;;;;;;;;;;5059409;28;20546;-53
2023/03/15 04:44:07;;;;;;;11.93;2.20;;;;;;;;;;5058835;28;20052;-55
2023/03/15 04:46:34;;;;;;;10.75;2.08;;;;;;;;;;5060646;28;20055;-56
2023/03/15 04:49:08;;;;;;;13.93;3.22;;;;;;;;;;5062507;28;20140;-56
2023/03/15 04:51:35;;;;;;;;;;;;;;;;;;5059122;28;20135;-55
2023/03/15 04:54:02;;;;;;;9.05;1.77;;;;;;;;;;5062134;28;19924;-54
2023/03/15 04:56:36;;;;;;;13.95;1.83;;;;;;;;;;5058698;28;20052;-62
2023/03/15 04:59:03;;;;;;;9.00;2.22;;;;;;;;;;5060279;28;20131;-62
2023/03/15 05:01:31;;;;;;;5.22;1.90;;;;;;;;;;5059531;28;20041;-62
2023/03/15 05:04:05;;;;;;;7.45;1.90;;;;;;;;;;5059512;28;20296;-62
2023/03/15 05:06:32;;;;;;;14.10;2.25;;;;;;;;;;5062320;28;20592;-62
2023/03/15 05:09:06;;;;;;;9.35;1.63;;;;;;;;;;5059294;28;20067;-55
2023/03/15 05:11:33;;;;;;;;;;;;;;;;;;5060982;28;20048;-55
2023/03/15 05:14:00;;;;;;;7.15;1.80;;;;;;;;;;5056940;28;19935;-55
2023/03/15 05:16:33;;;;;;;4.30;1.60;;;;;;;;;;5060713;28;20083;-52
2023/03/15 05:19:01;;;;;;;12.98;2.78;;;;;;;;;;5061782;28;20049;-53
2023/03/15 05:21:35;;;;;;;23.13;2.47;;;;;;;;;;5056779;28;20060;-53
2023/03/15 05:24:03;;;;;;;6.32;1.55;;;;;;;;;;5057629;28;20081;-51
2023/03/15 05:26:30;;;;;;;11.18;2.33;;;;;;;;;;5059489;28;20052;-60
2023/03/15 05:29:04;;;;;;;9.05;2.00;;;;;;;;;;5056612;28;20045;-59
2023/03/15 05:31:35;;;;;;;9.32;2.15;;;;;;;;;;5059005;28;20139;-60
2023/03/15 05:34:11;;;;;;;10.57;2.42;;;;;;;;;;5060921;28;20428;-59
2023/03/15 05:36:38;;;;;;;14.85;2.30;;;;;;;;;;5057487;28;20044;-54
2023/03/15 05:39:05;;;;;;;;;;;;;;;;;;5060102;28;20053;-58
2023/03/15 05:41:39;;;;;;;12.13;1.85;;;;;;;;;;5059838;28;19982;-58
2023/03/15 05:44:06;;;;;;;5.20;1.45;;;;;;;;;;5061150;28;20127;-58
2023/03/15 05:46:40;;;;;;;17.05;1.83;;;;;;;;;;5054679;28;20090;-60
2023/03/15 05:49:07;;;;;;;10.70;1.80;;;;;;;;;;5058656;28;20055;-59
2023/03/15 05:51:34;;;;;;;9.48;2.28;;;;;;;;;;5054422;28;20523;-59
2023/03/15 05:54:07;;;;;;;6.05;1.80;;;;;;;;;;5058218;28;20052;-45
2023/03/15 05:56:34;;;;;;;10.68;2.00;;;;;;;;;;5055816;28;20144;-50
2023/03/15 05:59:09;;;;;;;20.77;2.80;;;;;;;;;;5053063;28;20131;-46
2023/03/15 06:01:36;;;;;;;10.02;2.15;;;;;;;;;;5058310;28;20052;-49
2023/03/15 06:04:03;;;;;;;17.58;2.40;;;;;;;;;;5058960;28;20131;-54
2023/03/15 06:06:37;;;;;;;18.88;2.25;;;;;;;;;;5059421;28;20420;-50
2023/03/15 06:09:04;;;;;;;12.35;2.20;;;;;;;;;;5060926;28;20143;-54
2023/03/15 06:11:38;;;;;;;8.25;1.58;;;;;;;;;;5060063;28;20063;-55
2023/03/15 06:14:05;;;;;;;7.50;1.98;;;;;;;;;;5058122;28;20179;-56
2023/03/15 06:16:32;;;;;;;13.77;2.15;;;;;;;;;;5062615;28;20140;-52
2023/03/15 06:19:13;;;;;;;17.40;1.90;;;;;;;;;;5045920;28;20071;-52
2023/03/15 06:21:40;;;;;;;7.40;1.70;;;;;;;;;;5043343;28;20049;-55
2023/03/15 06:24:14;;;;;;;12.15;1.95;;;;;;;;;;5043343;28;20092;-56
2023/03/15 06:26:41;;;;;;;14.23;2.20;;;;;;;;;;5044806;28;20049;-54
2023/03/15 06:29:08;;;;;;;10.70;1.98;;;;;;;;;;5044293;28;20057;-56
2023/03/15 06:31:42;;;;;;;9.52;2.10;;;;;;;;;;5046355;28;20059;-54
2023/03/15 06:34:09;;;;;;;9.88;2.28;;;;;;;;;;5045816;28;20060;-55
2023/03/15 06:36:44;;;;;;;5.88;1.80;;;;;;;;;;5043293;28;20081;-52
2023/03/15 06:39:11;;;;;;;10.90;2.65;;;;;;;;;;5045749;28;20069;-47
2023/03/15 06:41:38;;;;;;;;;;;;;;;;;;5043453;28;20584;-47
2023/03/15 06:44:13;;;;;;;7.45;1.80;;;;;;;;;;5044699;28;20380;-53
2023/03/15 06:46:40;;;;;;;12.35;2.00;;;;;;;;;;5043902;28;20052;-49
2023/03/15 06:49:14;;;;;;;11.98;1.83;;;;;;;;;;5045633;28;20052;-54
2023/03/15 06:51:43;;;;;;;11.70;2.10;;;;;;;;;;5046879;28;20075;-56
2023/03/15 06:54:11;;;;;;;13.70;1.90;;;;;;;;;;5044939;28;20139;-58
2023/03/15 06:56:45;;;;;;;11.27;2.10;;;;;;;;;;5025271;28;20058;-56
2023/03/15 06:59:12;;;;;;;10.63;2.08;;;;;;;;;;5045651;28;20107;-54
2023/03/15 07:01:46;;;;;;;15.68;2.30;;;;;;;;;;5048734;28;20139;-50
2023/03/15 07:04:13;;;;;;;17.23;2.92;;;;;;;;;;5047365;28;20068;-52
2023/03/15 07:06:40;;;;;;;10.73;2.45;;;;;;;;;;5046787;28;20171;-56
2023/03/15 07:09:14;;;;;;;8.55;2.17;;;;;;;;;;5050870;28;20129;-49
2023/03/15 07:11:41;;;;;;;10.75;3.03;;;;;;;;;;5048143;28;20057;-52
2023/03/15 07:14:15;;;;;;;17.95;2.47;;;;;;;;;;5046402;28;20493;-51
2023/03/15 07:16:42;;;;;;;;;;;;;;;;;;5049985;28;20052;-50
2023/03/15 07:19:09;;;;;;;7.80;1.83;;;;;;;;;;5059336;28;19992;-50
2023/03/15 07:21:43;;;;;;;10.25;2.05;;;;;;;;;;5063695;28;20078;-46
2023/03/15 07:24:10;;;;;;;13.65;2.20;;;;;;;;;;5065370;28;20084;-48
2023/03/15 07:26:44;;;;;;;11.07;2.13;;;;;;;;;;5061336;28;20053;-47
2023/03/15 07:29:11;;;;;;;15.75;2.33;;;;;;;;;;5061002;28;20055;-56
2023/03/15 07:31:38;;;;;;;14.35;3.47;;;;;;;;;;5061314;28;20063;-55
2023/03/15 07:34:12;;;;;;;10.88;1.98;;;;;;;;;;5064519;28;20063;-53
2023/03/15 07:36:39;;;;;;;8.52;1.80;;;;;;;;;;5064125;28;20093;-50
2023/03/15 07:39:06;;;;;;;9.30;2.10;;;;;;;;;;5059638;28;20930;-53
2023/03/15 07:41:40;;;;;;;12.68;1.80;;;;;;;;;;5058385;28;20147;-52
2023/03/15 07:44:07;;;;;;;17.38;2.78;;;;;;;;;;5064750;28;20051;-54
2023/03/15 07:46:41;;;;;;;11.07;1.80;;;;;;;;;;5065840;28;20415;-52
2023/03/15 07:49:08;;;;;;;;;;;;;;;;;;5063521;28;20053;-56
2023/03/15 07:51:35;;;;;;;11.52;1.85;;;;;;;;;;5063474;28;19999;-51
2023/03/15 07:54:09;;;;;;;10.85;2.53;;;;;;;;;;5063442;28;20504;-49
2023/03/15 07:56:36;;;;;;;13.60;1.80;;;;;;;;;;5059081;28;20044;-52
2023/03/15 07:59:10;;;;;;;10.05;2.60;;;;;;;;;;5061508;28;20045;-64
2023/03/15 08:01:37;;;;;;;17.25;2.97;;;;;;;;;;5061786;28;20128;-64
2023/03/15 08:04:04;;;;;;;13.60;2.20;;;;;;;;;;5062425;28;20052;-64
2023/03/15 08:06:44;;;;;;;14.45;2.42;;;;;;;;;;5062963;28;20087;-64
2023/03/15 08:09:18;;;;;;;9.15;2.03;;;;;;;;;;5059360;28;20048;-64
2023/03/15 08:11:53;;;;;;;17.67;2.60;;;;;;;;;;5061561;28;20499;-64
2023/03/15 08:14:20;;;;;;;20.63;2.63;;;;;;;;;;5062979;28;20063;-64
2023/03/15 09:43:42;;;;;;;13.15;2.72;;;;;;;;;;3291603;26;20094;-70
2023/03/15 09:46:20;;;;;;;9.32;1.83;;;;;;;;;;4964668;28;20146;-70
2023/03/15 09:48:56;;;;;;;9.23;1.70;;;;;;;;;;4966462;28;20059;-71
2023/03/15 09:51:36;;;;;;;12.93;1.80;;;;;;;;;;4968940;28;20142;-70
2023/03/15 09:54:19;;;;;;;14.77;2.50;;;;;;;;;;4964585;28;20178;-70
2023/03/15 09:56:56;;;;;;;11.18;2.50;;;;;;;;;;4970503;28;20105;-70
2023/03/15 09:59:32;;;;;;;8.55;2.00;;;;;;;;;;4966327;28;20058;-70
2023/03/15 10:02:10;;;;;;;9.02;2.38;;;;;;;;;;4970895;28;20518;-69
2023/03/15 10:04:46;;;;;;;4.72;1.77;;;;;;;;;;4966665;28;20145;-70
2023/03/15 10:07:14;;;;;;;8.75;2.15;;;;;;;;;;4982885;28;20135;-70
2023/03/15 10:09:42;;;;;;;10.27;2.42;;;;;;;;;;4968331;28;20062;-69
2023/03/15 10:12:22;;;;;;;9.57;1.63;;;;;;;;;;4962534;28;20081;-70
2023/03/15 10:14:59;;;;;;;7.78;1.83;;;;;;;;;;4969554;28;20059;-70
2023/03/15 10:17:36;;;;;;;13.30;2.25;;;;;;;;;;4964671;28;20121;-70
2023/03/15 10:20:10;;;;;;;6.10;2.50;;;;;;;;;;4974450;28;20055;-69
2023/03/15 10:23:07;;;;;;;8.55;2.20;;;;;;;;;;4965800;28;20058;-70
2023/03/15 10:25:36;;;;;;;4.57;1.23;;;;;;;;;;4964664;28;20142;-71
2023/03/15 10:28:12;;;;;;;9.70;1.75;;;;;;;;;;4968566;28;20141;-70
2023/03/15 10:30:40;;;;;;;10.27;1.83;;;;;;;;;;4966658;28;20157;-69
2023/03/15 10:33:17;;;;;;;6.80;1.60;;;;;;;;;;4964146;28;20129;-70
2023/03/15 10:35:44;;;;;;;12.65;2.00;;;;;;;;;;4975218;28;20150;-70
2023/03/15 10:38:27;;;;;;;9.77;1.90;;;;;;;;;;4970984;28;20054;-69
2023/03/15 10:40:54;;;;;;;;;;;;;;;;;;4972478;28;20554;-69
2023/03/15 10:43:41;;;;;;;6.93;1.90;;;;;;;;;;4970212;28;19973;-69
2023/03/15 10:46:22;;;;;;;9.15;2.38;;;;;;;;;;4971280;28;20057;-69
2023/03/15 10:48:58;;;;;;;11.80;2.35;;;;;;;;;;4972386;28;20510;-69
2023/03/15 10:51:30;;;;;;;7.13;1.60;;;;;;;;;;4972091;28;20085;-69
2023/03/15 10:54:06;;;;;;;6.15;1.50;;;;;;;;;;4970350;28;20056;-69
2023/03/15 10:56:42;;;;;;;8.60;1.70;;;;;;;;;;4973367;28;20058;-69
2023/03/15 10:59:17;;;;;;;14.55;2.05;;;;;;;;;;4969487;28;20046;-69
2023/03/15 11:01:46;;;;;;;11.50;2.35;;;;;;;;;;4970295;28;20053;-69
2023/03/15 11:04:16;;;;;;;6.15;1.80;;;;;;;;;;4975552;28;20136;-69
2023/03/15 11:06:58;;;;;;;5.28;1.27;;;;;;;;;;4974039;28;20403;-69
2023/03/15 11:09:26;;;;;;;5.63;1.60;;;;;;;;;;4974349;28;20058;-69
2023/03/15 11:12:02;;;;;;;6.82;1.75;;;;;;;;;;4970425;28;20527;-64
2023/03/15 11:14:34;;;;;;;4.50;1.33;;;;;;;;;;4970406;28;20059;-64
2023/03/15 11:17:14;;;;;;;11.45;1.90;;;;;;;;;;4969350;28;20149;-61
2023/03/15 11:19:45;;;;;;;12.80;2.00;;;;;;;;;;4969207;28;20050;-61
2023/03/15 11:22:19;;;;;;;6.57;1.57;;;;;;;;;;4974252;28;20050;-61
2023/03/15 11:24:47;;;;;;;5.10;1.42;;;;;;;;;;4963703;28;20054;-61
2023/03/15 11:27:16;;;;;;;5.30;1.27;;;;;;;;;;4970296;28;20054;-61
2023/03/15 11:29:52;;;;;;;9.38;1.63;;;;;;;;;;4973089;28;20061;-66
2023/03/15 11:32:20;;;;;;;8.57;1.65;;;;;;;;;;4974434;28;20047;-65
2023/03/15 11:34:54;;;;;;;6.78;1.63;;;;;;;;;;4971143;28;20505;-66
2023/03/15 11:37:23;;;;;;;9.68;1.42;;;;;;;;;;4967602;28;20486;-66
2023/03/15 11:40:00;;;;;;;5.97;1.52;;;;;;;;;;4967599;28;20051;-66
2023/03/15 11:42:41;;;;;;;4.55;1.35;;;;;;;;;;4969153;28;20137;-66
2023/03/15 11:45:24;;;;;;;5.63;1.98;;;;;;;;;;4969917;28;20489;-66
2023/03/15 11:47:57;;;;;;;6.60;1.65;;;;;;;;;;4969637;28;20058;-66
2023/03/15 11:50:31;;;;;;;9.70;1.77;;;;;;;;;;4969907;28;20059;-66
2023/03/15 11:53:02;;;;;;;12.50;1.83;;;;;;;;;;4973865;28;20059;-66
2023/03/15 11:55:37;;;;;;;8.52;1.67;;;;;;;;;;4969676;28;20462;-66
2023/03/15 11:58:22;;;;;;;4.78;1.35;;;;;;;;;;4965413;28;20074;-66
2023/03/15 12:01:01;;;;;;;3.28;1.15;;;;;;;;;;4968569;28;20054;-66
2023/03/15 12:03:28;;;;;;;7.47;1.45;;;;;;;;;;4967312;28;20172;-66
2023/03/15 12:06:17;;;;;;;3.35;1.13;;;;;;;;;;4969030;28;20069;-66
2023/03/15 12:08:47;;;;;;;5.55;1.30;;;;;;;;;;4968354;28;20088;-66
2023/03/15 12:11:21;;;;;;;5.57;1.83;;;;;;;;;;4970010;28;20138;-65
2023/03/15 12:13:52;;;;;;;7.53;1.60;;;;;;;;;;4969619;28;20109;-66
2023/03/15 12:16:44;;;;;;;5.43;1.13;;;;;;;;;;4968903;28;20054;-66
2023/03/15 12:19:16;;;;;;;8.98;1.73;;;;;;;;;;4965092;28;20043;-66
2023/03/15 12:21:51;;;;;;;6.85;1.70;;;;;;;;;;4966275;28;20050;-66
2023/03/15 12:24:26;;;;;;;7.15;1.40;;;;;;;;;;4969310;28;20502;-65
2023/03/15 12:27:04;;;;;;;2.60;1.00;;;;;;;;;;4966477;28;20062;-66
2023/03/15 12:29:33;;;;;;;5.97;1.42;;;;;;;;;;4968586;28;20047;-66
2023/03/15 12:32:12;;;;;;;6.70;1.92;;;;;;;;;;4969110;28;20046;-65
2023/03/15 12:34:42;;;;;;;11.13;2.00;;;;;;;;;;4969088;28;20054;-65
2023/03/15 12:37:25;;;;;;;8.82;1.35;;;;;;;;;;4967479;28;20134;-66
2023/03/15 12:39:52;;;;;;;10.65;1.65;;;;;;;;;;4966755;28;20059;-65
2023/03/15 12:42:37;;;;;;;7.55;1.42;;;;;;;;;;4967078;28;20070;-65
2023/03/15 12:45:16;;;;;;;5.05;1.60;;;;;;;;;;4969573;28;20160;-66
2023/03/15 12:47:51;;;;;;;8.05;2.03;;;;;;;;;;4969046;28;20134;-66
2023/03/15 12:50:37;;;;;;;8.50;1.63;;;;;;;;;;4970485;28;20390;-66
2023/03/15 12:53:21;;;;;;;8.18;1.60;;;;;;;;;;4969657;28;20054;-66
2023/03/15 12:55:51;;;;;;;5.72;1.75;;;;;;;;;;4968536;28;20075;-66
2023/03/15 12:58:35;;;;;;;9.68;1.38;;;;;;;;;;4972138;28;20419;-66
2023/03/15 13:01:05;;;;;;;7.57;1.58;;;;;;;;;;4970722;28;20145;-65
2023/03/15 13:03:40;;;;;;;3.65;0.93;;;;;;;;;;4968053;28;20174;-65
2023/03/15 13:06:26;;;;;;;8.23;1.52;;;;;;;;;;4966594;28;20062;-65
2023/03/15 13:09:00;;;;;;;5.10;1.13;;;;;;;;;;4971651;28;20054;-65
2023/03/15 13:11:41;;;;;;;7.00;1.65;;;;;;;;;;4974472;28;20131;-66
2023/03/15 13:14:24;;;;;;;7.68;1.60;;;;;;;;;;4970746;28;20507;-66
2023/03/15 13:17:16;;;;;;;7.22;1.25;;;;;;;;;;4965584;28;20668;-66
2023/03/15 13:19:55;;;;;;;9.98;1.20;;;;;;;;;;4971554;28;20146;-66
2023/03/15 13:22:43;;;;;;;6.95;1.85;;;;;;;;;;4972435;28;20051;-65
2023/03/15 13:25:33;;;;;;;5.47;1.52;;;;;;;;;;4968904;28;20092;-65
2023/03/15 13:28:10;;;;;;;3.38;0.98;;;;;;;;;;4961727;28;20645;-66
2023/03/15 13:30:42;;;;;;;2.88;1.05;;;;;;;;;;4967041;28;20453;-66
2023/03/15 13:33:20;;;;;;;7.05;1.20;;;;;;;;;;4969571;28;20063;-66
2023/03/15 13:36:22;;;;;;;5.28;1.20;;;;;;;;;;4969606;28;20054;-66
2023/03/15 13:39:03;;;;;;;2.72;1.23;;;;;;;;;;4969292;28;20058;-66
2023/03/15 13:41:31;;;;;;;1.48;0.90;;;;;;;;;;4983963;28;20055;-66
2023/03/15 13:44:19;;;;;;;2.58;0.90;;;;;;;;;;4964386;28;20066;-60
2023/03/15 13:46:48;;;;;;;6.38;0.90;;;;;;;;;;4970019;28;20485;-60
2023/03/15 13:49:22;;;;;;;5.00;1.15;;;;;;;;;;4972171;28;20088;-62
2023/03/15 13:51:51;;;;;;;3.72;1.10;;;;;;;;;;4965144;28;20138;-61
2023/03/15 13:54:25;;;;;;;7.32;1.25;;;;;;;;;;4965351;28;20090;-61
2023/03/15 13:57:03;;;;;;;3.03;1.20;;;;;;;;;;4967198;28;20050;-61
2023/03/15 13:59:38;;;;;;;1.40;0.63;;;;;;;;;;4968041;28;20081;-62
2023/03/15 14:02:07;;;;;;;5.50;1.33;;;;;;;;;;4968174;28;20057;-61
2023/03/15 14:04:41;;;;;;;7.00;1.35;;;;;;;;;;4968266;28;20056;-61
2023/03/15 14:07:26;;;;;;;2.95;1.20;;;;;;;;;;4964397;28;20043;-61
2023/03/15 14:10:21;;;;;;;2.80;1.02;;;;;;;;;;4968268;28;20058;-61
2023/03/15 14:12:48;;;;;;;6.25;1.48;;;;;;;;;;4971286;28;20281;-62
2023/03/15 14:15:34;;;;;;;2.97;0.80;;;;;;;;;;4966525;28;20055;-66
2023/03/15 14:18:07;;;;;;;2.08;0.70;;;;;;;;;;4970672;28;20046;-66
2023/03/15 14:20:46;;;;;;;3.97;0.90;;;;;;;;;;4970391;28;20145;-66
2023/03/15 14:23:17;;;;;;;4.05;1.00;;;;;;;;;;4969910;28;20125;-67
2023/03/15 14:25:55;;;;;;;3.25;1.13;;;;;;;;;;4964615;28;20053;-66
2023/03/15 14:28:23;;;;;;;6.78;0.95;;;;;;;;;;4967852;28;20507;-66
2023/03/15 14:30:52;;;;;;;6.65;1.15;;;;;;;;;;4967756;28;20062;-66
2023/03/15 14:33:46;;;;;;;6.07;1.00;;;;;;;;;;4966986;28;20674;-66
2023/03/15 14:36:34;;;;;;;3.30;1.17;;;;;;;;;;4969959;28;20137;-66
2023/03/15 14:39:38;;;;;;;2.65;0.90;;;;;;;;;;4967823;28;20150;-66
2023/03/15 14:42:06;;;;;;;4.13;1.13;;;;;;;;;;4960133;28;20054;-66
2023/03/15 14:44:47;;;;;;;2.33;1.02;;;;;;;;;;4968850;28;20157;-66
2023/03/15 14:47:15;;;;;;;3.78;1.85;;;;;;;;;;4965598;28;21239;-66
2023/03/15 14:49:49;;;;;;;3.78;1.10;;;;;;;;;;4968085;28;20146;-66
2023/03/15 14:52:16;;;;;;;5.03;1.20;;;;;;;;;;4965928;28;20396;-66
2023/03/15 14:54:46;;;;;;;3.95;0.93;;;;;;;;;;4967102;28;20058;-66
2023/03/15 14:57:20;;;;;;;5.10;1.20;;;;;;;;;;4970238;28;20142;-65
2023/03/15 14:59:49;;;;;;;5.28;1.45;;;;;;;;;;4967548;28;20054;-65
2023/03/15 15:02:23;;;;;;;1.40;0.85;;;;;;;;;;4965697;28;20061;-66
2023/03/15 15:04:51;;;;;;;5.70;1.30;;;;;;;;;;4965300;28;20059;-67
2023/03/15 15:07:25;;;;;;;5.60;1.42;;;;;;;;;;4967615;28;20066;-65
2023/03/15 15:09:52;;;;;;;6.65;1.08;;;;;;;;;;4966963;28;20747;-65
2023/03/15 15:12:30;;;;;;;4.75;1.20;;;;;;;;;;4970763;28;20050;-65
2023/03/15 15:14:57;;;;;;;5.72;1.38;;;;;;;;;;4965939;28;20125;-65
2023/03/15 15:17:30;;;;;;;6.75;1.30;;;;;;;;;;4963742;28;20054;-65
2023/03/15 15:20:06;;;;;;;1.23;0.70;;;;;;;;;;4964346;28;20058;-50
2023/03/15 15:22:33;;;;;;;3.78;1.00;;;;;;;;;;4971032;28;20142;-49
2023/03/15 15:25:17;;;;;;;5.82;1.50;;;;;;;;;;4968690;28;20058;-49
2023/03/15 15:27:45;;;;;;;3.60;0.98;;;;;;;;;;4970618;28;20129;-50
2023/03/15 15:30:20;;;;;;;5.78;1.30;;;;;;;;;;4969950;28;20193;-47
2023/03/15 15:32:48;;;;;;;3.83;1.15;;;;;;;;;;4972924;28;20082;-48
2023/03/15 15:35:22;;;;;;;3.13;1.13;;;;;;;;;;4971064;28;20051;-50
2023/03/15 15:37:50;;;;;;;2.97;1.00;;;;;;;;;;4967836;28;20654;-53
2023/03/15 15:40:27;;;;;;;6.25;1.08;;;;;;;;;;4965805;28;20047;-50
2023/03/15 15:43:08;;;;;;;8.32;1.33;;;;;;;;;;4966103;28;20137;-49
2023/03/15 15:45:43;;;;;;;5.83;1.20;;;;;;;;;;4962826;28;20412;-54
2023/03/15 15:48:10;;;;;;;4.22;1.25;;;;;;;;;;4971541;28;20673;-60
2023/03/15 15:50:37;;;;;;;8.63;1.40;;;;;;;;;;4970286;28;20061;-59
2023/03/15 15:53:14;;;;;;;4.53;1.13;;;;;;;;;;4968992;28;20478;-59
2023/03/15 15:55:43;;;;;;;8.57;1.38;;;;;;;;;;4968120;28;20082;-59
2023/03/15 15:58:11;;;;;;;3.33;1.30;;;;;;;;;;4968066;28;20144;-58
2023/03/15 16:00:45;;;;;;;11.40;1.98;;;;;;;;;;4967925;28;20113;-59
2023/03/15 16:03:19;;;;;;;4.90;1.77;;;;;;;;;;4966092;28;20069;-60
2023/03/15 16:05:46;;;;;;;7.28;1.20;;;;;;;;;;4966581;28;20081;-59
2023/03/15 16:08:21;;;;;;;3.15;1.17;;;;;;;;;;4970356;28;20471;-59
2023/03/15 16:10:55;;;;;;;8.57;1.52;;;;;;;;;;4966944;28;20141;-60
2023/03/15 16:13:22;;;;;;;7.70;2.05;;;;;;;;;;4968129;28;20066;-60
2023/03/15 16:15:49;;;;;;;8.27;1.80;;;;;;;;;;4966953;28;20130;-60
2023/03/15 16:18:23;;;;;;;7.70;1.88;;;;;;;;;;4970171;28;20503;-61
2023/03/15 16:20:50;;;;;;;11.13;1.50;;;;;;;;;;4971907;28;20489;-57
2023/03/15 16:23:25;;;;;;;5.53;1.52;;;;;;;;;;4969329;28;20138;-56
2023/03/15 16:25:54;;;;;;;4.88;1.90;;;;;;;;;;4967784;28;20471;-55
2023/03/15 16:28:22;;;;;;;7.50;1.83;;;;;;;;;;4966036;28;20558;-50
2023/03/15 16:30:56;;;;;;;8.00;1.75;;;;;;;;;;4969752;28;20055;-57
2023/03/15 16:33:23;;;;;;;7.63;1.95;;;;;;;;;;4966837;28;20050;-58
2023/03/15 16:35:57;;;;;;;9.57;1.70;;;;;;;;;;4970702;28;20062;-58
2023/03/15 16:38:27;;;;;;;5.25;1.20;;;;;;;;;;4961894;28;20499;-57
2023/03/15 16:40:55;;;;;;;7.20;1.48;;;;;;;;;;4971362;28;20134;-56